Latest Weather Observations for Ferny Creek

IDV60801

Issued at 10:05 pm EDT Wednesday 26 November 2014 (issued every 30 minutes, with the page automatically refreshed every 10 minutes)

About weather observations | Map of weather stations | Latest weather observations for VIC | Other Formats
Station Details ID: 086266 Name: FERNY CREEK Lat: -37.87 Lon: 145.35 Height: 512.9 m
Data from the previous 72 hours. | See also: Recent months at Ferny Creek
Date/Time
EDT
Temp
°C
App
Temp
°C
Dew
Point
Rel
Hum
%
Delta-T
°C
Wind Press
QNH
hPa
Press
MSL
hPa
Rain
since 9 am
mm
Dir
 
Spd
km/h
Gust
km/h
Spd
kts
Gust
kts
26/10:00pm 8.6 7.1 6.6 87 0.9 E 4 11 2 6 1024.1 1023.5 2.8
26/09:30pm 8.6 6.6 6.4 86 1.0 SSE 6 13 3 7 1023.8 1023.2 2.8
26/09:00pm 8.7 7.2 6.7 87 1.0 SSE 4 11 2 6 1023.5 1022.9 2.8
26/08:30pm 9.1 7.3 7.2 88 0.9 SE 6 11 3 6 1023.3 1022.7 2.8
26/08:00pm 9.2 7.9 7.6 90 0.8 SE 4 9 2 5 1023.2 1022.5 2.8
26/07:30pm 9.5 7.9 7.9 90 0.8 SE 6 15 3 8 1023.1 1022.4 2.8
26/07:00pm 9.7 8.2 8.5 92 0.6 SE 6 11 3 6 1022.8 1022.2 2.8
26/06:30pm 10.0 8.7 9.1 94 0.5 ESE 6 11 3 6 1022.4 1021.8 2.8
26/06:00pm 10.6 9.2 9.7 94 0.5 SSE 7 17 4 9 1022.1 1021.5 2.0
26/05:30pm 11.1 10.4 10.2 94 0.5 ESE 4 7 2 4 1022.0 1021.4 1.2
26/05:00pm 11.9 11.4 10.6 92 0.7 S 4 7 2 4 1022.0 1021.4 0.0
26/04:30pm 12.4 11.4 10.3 87 1.1 S 6 11 3 6 1022.0 1021.4 0.0
26/04:00pm 13.6 12.3 9.3 75 2.2 SSW 6 11 3 6 1022.0 1021.4 0.0
26/03:30pm 14.4 13.0 9.0 70 2.8 SW 6 15 3 8 1021.9 1021.3 0.0
26/03:00pm 14.9 13.8 8.6 66 3.3 WSW 4 9 2 5 1021.9 1021.3 0.0
26/02:30pm 14.4 12.9 8.6 68 3.0 SW 6 15 3 8 1022.1 1021.5 0.0
26/02:00pm 14.0 12.4 8.8 71 2.7 WSW 7 15 4 8 1022.0 1021.4 0.0
26/01:30pm 14.2 12.8 9.0 71 2.7 WSW 6 17 3 9 1022.0 1021.4 0.0
26/01:00pm 13.0 11.3 7.7 70 2.7 WSW 6 13 3 7 1022.1 1021.5 0.0
26/12:30pm 12.7 11.6 8.4 75 2.2 WSW 4 11 2 6 1022.1 1021.5 0.0
26/12:00pm 12.1 10.7 7.4 73 2.3 WSW 4 9 2 5 1021.9 1021.3 0.0
26/11:30am 12.3 11.5 8.0 75 2.2 W 2 6 1 3 1021.9 1021.3 0.0
26/11:00am 11.8 10.3 6.9 72 2.4 W 4 7 2 4 1021.8 1021.2 0.0
26/10:30am 11.8 10.6 8.1 78 1.9 W 4 6 2 3 1021.8 1021.2 0.0
26/10:00am 10.6 9.5 6.9 78 1.8 W 2 7 1 4 1021.8 1021.2 0.0
26/09:30am 10.7 9.2 7.0 78 1.8 NW 4 7 2 4 1021.6 1021.0 0.0
26/09:00am 10.5 8.6 6.8 78 1.8 WSW 6 9 3 5 1021.6 1021.0 0.0
26/08:30am 10.0 8.9 7.1 82 1.4 W 2 6 1 3 1021.3 1020.6 0.0
26/08:00am 9.0 7.9 7.0 87 1.0 W 2 4 1 2 1021.1 1020.4 0.0
26/07:30am 8.2 7.4 6.5 89 0.8 CALM 0 6 0 3 1020.8 1020.2 0.0
26/07:00am 7.7 6.9 6.3 91 0.7 CALM 0 4 0 2 1020.5 1019.9 0.0
26/06:30am 7.1 6.2 5.9 92 0.6 CALM 0 6 0 3 1020.3 1019.7 0.0
26/06:00am 6.8 5.4 5.6 92 0.5 NW 2 4 1 2 1020.1 1019.5 0.0
26/05:30am 6.7 5.7 5.5 92 0.5 CALM 0 0 0 0 1019.9 1019.3 0.0
26/05:00am 6.6 5.5 5.2 91 0.6 CALM 0 0 0 0 1019.7 1019.0 0.0
26/04:30am 6.7 5.6 5.0 89 0.8 CALM 0 0 0 0 1019.8 1019.1 0.0
26/04:00am 6.8 5.7 5.0 88 0.8 CALM 0 0 0 0 1019.8 1019.1 0.0
26/03:30am 7.1 6.1 5.4 89 0.8 CALM 0 0 0 0 1019.9 1019.3 0.0
26/03:00am 7.3 6.2 5.1 86 1.0 CALM 0 0 0 0 1019.9 1019.3 0.0
26/02:30am 7.5 6.3 4.5 81 1.4 CALM 0 0 0 0 1020.1 1019.5 0.0
26/02:00am 8.0 6.8 4.8 80 1.5 CALM 0 0 0 0 1020.3 1019.7 0.0
26/01:30am 8.9 7.9 5.5 79 1.6 CALM 0 0 0 0 1020.6 1020.0 0.0
26/01:00am 9.4 8.4 5.6 77 1.8 CALM 0 2 0 1 1020.8 1020.2 0.0
26/12:30am 9.8 8.6 6.5 80 1.6 NW 2 7 1 4 1021.2 1020.5 0.0
26/12:00am 9.8 9.2 7.6 86 1.1 CALM 0 0 0 0 1021.4 1020.7 0.0
 
Date/Time
EDT
Temp
°C
App
Temp
°C
Dew
Point
Rel
Hum
%
Delta-T
°C
Wind Press
QNH
hPa
Press
MSL
hPa
Rain
since 9 am
mm
Dir
 
Spd
km/h
Gust
km/h
Spd
kts
Gust
kts
25/11:30pm 9.8 9.1 7.1 83 1.3 CALM 0 0 0 0 1021.6 1021.0 0.0
25/11:00pm 9.8 9.1 7.1 83 1.3 CALM 0 0 0 0 1021.9 1021.3 0.0
25/10:30pm 9.5 8.4 6.8 83 1.3 SSE 2 4 1 2 1021.8 1021.2 0.0
25/10:00pm 9.3 7.4 6.7 84 1.2 SW 6 11 3 6 1021.6 1021.0 0.0
25/09:30pm 9.6 8.7 7.7 88 0.9 SSE 2 6 1 3 1021.3 1020.6 0.0
25/09:00pm 9.7 8.6 6.8 82 1.4 SSW 2 4 1 2 1021.0 1020.3 0.0
25/08:30pm 10.6 8.4 6.4 75 2.0 SW 7 15 4 8 1020.6 1020.0 0.0
25/08:00pm 11.3 9.1 6.2 71 2.5 SW 7 15 4 8 1020.6 1020.0 0.0
25/07:30pm 12.1 10.2 6.6 69 2.7 SW 6 13 3 7 1020.3 1019.7 0.0
25/07:00pm 13.0 11.1 6.6 65 3.1 SW 6 11 3 6 1019.9 1019.3 0.0
25/06:30pm 13.3 11.1 6.2 62 3.5 WSW 7 13 4 7 1019.5 1018.8 0.0
25/06:00pm 14.0 11.4 6.1 59 3.9 SW 9 15 5 8 1019.2 1018.5 0.0
25/05:30pm 15.1 12.7 5.3 52 4.8 WSW 7 17 4 9 1019.1 1018.4 0.0
25/05:00pm 15.6 13.6 6.9 56 4.4 WSW 7 19 4 10 1019.2 1018.5 0.0
25/04:30pm 16.1 14.0 6.8 54 4.7 W 7 15 4 8 1019.2 1018.5 0.0
25/04:00pm 16.6 14.6 8.6 59 4.2 WSW 9 22 5 12 1019.2 1018.5 0.0
25/03:30pm 16.7 14.6 6.5 51 5.1 WSW 7 17 4 9 1019.1 1018.4 0.0
25/03:00pm 15.9 14.0 6.9 55 4.5 WSW 6 20 3 11 1019.2 1018.5 0.0
25/02:30pm 15.1 12.6 6.4 56 4.3 WSW 9 17 5 9 1019.1 1018.4 0.0
25/02:00pm 15.3 13.2 6.8 57 4.3 WSW 7 19 4 10 1019.1 1018.4 0.0
25/01:30pm 15.0 13.2 8.0 63 3.6 WSW 7 17 4 9 1019.1 1018.4 0.0
25/01:00pm 14.1 12.2 6.7 61 3.7 WSW 6 17 3 9 1019.1 1018.4 0.0
25/12:30pm 13.9 12.2 7.4 65 3.3 W 6 11 3 6 1019.0 1018.3 0.0
25/12:00pm 13.9 12.4 8.5 70 2.8 W 6 15 3 8 1019.1 1018.4 0.0
25/11:30am 12.6 10.8 7.3 70 2.6 W 6 9 3 5 1019.1 1018.4 0.0
25/11:00am 11.9 10.1 7.8 76 2.1 WSW 7 17 4 9 1019.1 1018.4 0.0
25/10:30am 10.8 9.5 7.5 80 1.6 WSW 4 7 2 4 1019.0 1018.3 0.0
25/10:00am 10.5 9.6 7.9 84 1.3 W 2 7 1 4 1018.7 1018.1 0.0
25/09:30am 9.8 8.6 8.1 89 0.8 WNW 4 7 2 4 1018.5 1017.9 0.0
25/09:00am 9.3 7.6 7.6 89 0.8 WNW 6 11 3 6 1018.1 1017.4 23.0
25/08:30am 8.6 7.6 7.5 93 0.5 WNW 2 9 1 5 1017.7 1017.0 23.0
25/08:00am 8.1 6.1 6.9 92 0.6 NW 7 13 4 7 1017.3 1016.6 23.0
25/07:30am 7.8 6.7 6.9 94 0.4 WNW 2 6 1 3 1016.9 1016.2 23.0
25/07:00am 7.7 6.6 7.0 95 0.3 W 2 9 1 5 1016.1 1015.4 23.0
25/06:30am 7.0 5.8 6.4 96 0.3 W 2 7 1 4 1015.9 1015.2 23.0
25/06:00am 6.8 5.2 6.2 96 0.3 WNW 4 7 2 4 1015.3 1014.6 23.0
25/05:30am 6.7 4.7 6.1 96 0.3 NW 6 9 3 5 1015.2 1014.5 23.0
25/05:00am 6.4 5.4 5.7 95 0.3 CALM 0 4 0 2 1014.8 1014.0 23.0
25/04:30am 6.7 5.0 6.0 95 0.3 WNW 4 7 2 4 1014.3 1013.6 23.0
25/04:00am 6.6 4.9 5.7 94 0.4 WNW 4 7 2 4 1014.2 1013.5 23.0
25/03:30am 7.0 5.4 6.3 95 0.3 W 4 6 2 3 1014.2 1013.5 23.0
25/03:00am 7.3 5.8 6.7 96 0.3 WNW 4 7 2 4 1014.3 1013.6 23.0
25/02:30am 6.9 5.6 6.2 95 0.3 W 2 6 1 3 1014.4 1013.7 23.0
25/02:00am 7.2 6.0 6.3 94 0.4 WNW 2 6 1 3 1014.2 1013.5 23.0
25/01:30am 7.5 6.3 6.6 94 0.4 W 2 7 1 4 1014.1 1013.4 23.0
25/01:00am 7.8 6.7 6.9 94 0.4 WNW 2 4 1 2 1014.1 1013.4 23.0
25/12:30am 7.7 6.5 6.6 93 0.5 WNW 2 4 1 2 1014.0 1013.3 23.0
25/12:00am 8.4 7.1 7.5 94 0.4 WNW 4 6 2 3 1013.9 1013.2 23.0
 
Date/Time
EDT
Temp
°C
App
Temp
°C
Dew
Point
Rel
Hum
%
Delta-T
°C
Wind Press
QNH
hPa
Press
MSL
hPa
Rain
since 9 am
mm
Dir
 
Spd
km/h
Gust
km/h
Spd
kts
Gust
kts
24/11:30pm 9.4 8.7 8.6 95 0.4 WNW 2 4 1 2 1013.7 1013.0 23.0
24/11:00pm 9.1 7.9 8.2 94 0.4 W 4 9 2 5 1013.6 1012.9 23.0
24/10:30pm 9.5 8.5 8.7 95 0.4 W 4 9 2 5 1013.6 1012.9 23.0
24/10:00pm 9.7 8.8 9.1 96 0.3 W 4 11 2 6 1013.4 1012.7 23.0
24/09:30pm 9.4 8.4 8.8 96 0.3 W 4 13 2 7 1012.9 1012.1 23.0
24/09:00pm 9.4 8.0 8.8 96 0.3 W 6 13 3 7 1012.5 1011.8 22.4
24/08:30pm 9.8 7.6 9.2 96 0.3 WSW 11 28 6 15 1012.0 1011.3 22.0
24/08:00pm 10.5 8.1 9.9 96 0.3 WSW 13 24 7 13 1011.7 1011.0 21.0
24/07:30pm 11.4 9.6 10.8 96 0.3 WSW 11 24 6 13 1010.9 1010.1 19.2
24/07:00pm 12.0 11.0 11.1 94 0.5 WSW 7 15 4 8 1010.0 1009.3 17.4
24/06:30pm 12.4 11.5 11.5 94 0.5 WSW 7 19 4 10 1009.5 1008.7 17.4
24/06:00pm 12.8 11.7 12.0 95 0.4 WSW 9 24 5 13 1008.7 1007.9 17.4
24/05:30pm 12.9 11.2 12.3 96 0.3 WSW 13 20 7 11 1008.0 1007.2 17.4
24/05:00pm 13.6 12.8 12.8 95 0.4 WSW 9 26 5 14 1007.5 1006.7 17.2
24/04:30pm 14.8 14.8 14.2 96 0.3 WSW 7 22 4 12 1007.3 1006.5 14.6
24/04:00pm 14.8 14.7 14.0 95 0.5 WSW 7 17 4 9 1007.5 1006.7 11.8
24/03:30pm 15.2 14.7 13.7 91 0.9 WSW 9 26 5 14 1007.6 1006.8 7.2
24/03:00pm 17.6 17.7 15.6 88 1.2 NNW 9 19 5 10 1006.8 1006.0 7.2
24/02:30pm 17.8 17.0 15.1 84 1.6 N 13 32 7 17 1006.9 1006.1 7.0
24/02:00pm 17.5 15.8 14.8 84 1.6 NNE 17 33 9 18 1006.7 1005.9 7.0
24/01:46pm 17.0 16.5 14.8 87 1.3 NNE 11 32 6 17 1006.8 1006.0 7.0
24/01:30pm 16.7 17.4 14.5 87 1.3 NW 4 13 2 7 1008.9 1008.1 6.8
24/01:00pm 15.9 15.9 13.7 87 1.3 NNE 6 15 3 8 1008.2 1007.5 6.6
24/12:51pm 15.6 15.8 14.6 94 0.6 NE 7 13 4 7 1008.3 1007.6 6.2
24/12:30pm 16.6 18.2 14.8 89 1.1 CALM 0 4 0 2 1010.4 1009.7 4.0
24/12:00pm 16.4 17.2 13.7 84 1.6 N 2 6 1 3 1010.1 1009.4 2.4
24/11:30am 15.4 16.0 13.1 86 1.3 NW 2 6 1 3 1010.9 1010.1 2.2
24/11:00am 15.2 16.1 13.9 92 0.8 W 2 4 1 2 1011.1 1010.3 2.2
24/10:30am 14.7 14.8 12.7 88 1.1 N 4 7 2 4 1011.0 1010.2 2.2
24/10:00am 15.0 15.3 13.4 90 0.9 N 4 9 2 5 1011.6 1010.9 1.8
24/09:30am 15.1 16.1 13.1 88 1.1 CALM 0 0 0 0 1011.0 1010.2 0.8
24/09:00am 16.7 15.2 11.8 73 2.7 W 11 28 6 15 1011.2 1010.4 0.8
24/08:58am 17.4 15.5 11.9 70 3.1 WNW 13 28 7 15 1011.3 1010.5 0.6
24/08:30am 18.7 15.5 10.0 57 4.8 NNE 17 28 9 15 1009.2 1008.4 0.2
24/08:00am 18.7 15.8 9.8 56 4.9 NNE 15 33 8 18 1009.4 1008.6 0.2
24/07:30am 19.3 16.9 8.6 50 5.7 NNE 11 28 6 15 1009.5 1008.7 0.0
24/07:00am 20.7 18.2 6.6 40 7.3 N 9 19 5 10 1009.7 1008.9 0.0
24/06:30am 19.7 18.1 7.8 46 6.3 N 6 17 3 9 1009.9 1009.2 0.0
24/06:00am 19.8 18.3 6.9 43 6.7 NNW 4 9 2 5 1009.9 1009.2 0.0
24/05:30am 20.1 18.6 6.8 42 6.9 NNW 4 9 2 5 1009.9 1009.2 0.0
24/05:00am 18.9 18.0 7.7 48 5.9 N 2 9 1 5 1009.7 1008.9 0.0
24/04:30am 18.9 17.6 7.7 48 5.9 N 4 11 2 6 1009.6 1008.8 0.0
24/04:00am 18.6 17.5 8.3 51 5.5 N 4 7 2 4 1010.4 1009.7 0.0
24/03:30am 18.4 17.2 8.1 51 5.4 N 4 9 2 5 1010.5 1009.8 0.0
24/03:00am 17.9 17.2 8.7 55 4.9 N 2 6 1 3 1011.0 1010.2 0.0
24/02:30am 18.3 17.9 9.6 57 4.7 N 2 6 1 3 1011.5 1010.8 0.0
24/02:00am 16.9 16.9 11.0 68 3.3 NNW 2 6 1 3 1011.7 1011.0 0.0
24/01:30am 14.8 15.6 12.5 86 1.3 CALM 0 4 0 2 1012.2 1011.5 0.0
24/01:00am 14.6 14.6 11.2 80 1.9 NW 2 4 1 2 1012.9 1012.1 0.0
24/12:30am 14.6 14.8 11.9 84 1.5 WNW 2 4 1 2 1013.3 1012.6 0.0
24/12:00am 14.5 15.1 11.8 84 1.5 CALM 0 0 0 0 1013.5 1012.8 0.0
 
Date/Time
EDT
Temp
°C
App
Temp
°C
Dew
Point
Rel
Hum
%
Delta-T
°C
Wind Press
QNH
hPa
Press
MSL
hPa
Rain
since 9 am
mm
Dir
 
Spd
km/h
Gust
km/h
Spd
kts
Gust
kts
23/11:30pm 14.9 15.5 12.0 83 1.6 CALM 0 4 0 2 1014.1 1013.4 0.0
23/11:00pm 15.5 16.3 12.4 82 1.7 CALM 0 0 0 0 1014.2 1013.5 0.0
23/10:30pm 15.2 15.3 11.6 79 2.0 ENE 2 4 1 2 1014.5 1013.8 0.0

Other Formats:

Comma delimited format used in spreadsheet applications
http://www.bom.gov.au/fwo/IDV60801/IDV60801.94872.axf

JavaScript Object Notation format (JSON) in row-major order
http://www.bom.gov.au/fwo/IDV60801/IDV60801.94872.json